Alsey, IL

3:27 AM CDT on October 02, 2014 (GMT -0500)
Weather Station 62694 | Change Station
CLOSE
Current Station
Personal Weather Station
Location: Winchester, IL
Elevation: 548 ft
Nearby Weather Stations

Elev 548 ft 39.63 °N, 90.45 °W | Updated 1 second ago

Thunderstorm
Thunderstorm
67.3 °F
Feels Like 67.3 °F
N
6.9
Wind Variable Wind from North
Gusts 7.6 mph

Today
High -- | Low -- °F
--% Chance of Precip.
Yesterday
High -- | Low -- °F
Precip. -- in
6:58 AM 6:42 PM
First Quarter, 56% visible
Pressure 29.84 in
Visibility 10.0 miles
Clouds Scattered Clouds 3400 ft
Mostly Cloudy 4600 ft
Overcast 5000 ft
Dew Point 67 °F
Humidity 99%
Rainfall 0.40 in
Snow Depth Not available.
UV 0 out of 12
Pollen 4.40 out of 12
Air Quality Not available.
Flu Activity Not available.
METAR KPPQ 020815Z AUTO 08008KT 10SM -VCTSRA SCT034 BKN046 OVC050 18/17 A2984 RMK AO2 LTG DSNT NE THRU S P0002 T01800165

More Conditions Fewer Conditions

Pressure 29.84 in
Visibility 10.0 miles
Clouds Scattered Clouds 3400 ft
Mostly Cloudy 4600 ft
Overcast 5000 ft
Dew Point 67 °F
Humidity 99%
Rainfall 0.40 in
Snow Depth Not available.
UV 0 out of 12
Pollen 4.40 out of 12
Air Quality Not available.
Flu Activity Not available.
METAR KPPQ 020815Z AUTO 08008KT 10SM -VCTSRA SCT034 BKN046 OVC050 18/17 A2984 RMK AO2 LTG DSNT NE THRU S P0002 T01800165

More Conditions Fewer Conditions

10-Day Weather Forecast

Almanac

Astronomy

Oct. 02, 2014 Rise Set
Actual Time 6:58 AM CDT 6:42 PM CDT
Civil Twilight 6:32 AM CDT 7:09 PM CDT
Nautical Twilight 6:00 AM CDT 7:40 PM CDT
Astronomical Twilight 5:29 AM CDT 8:11 PM CDT
Moon 2:47 PM CDT 12:17 AM CDT
Length of Visible Light 12h 37m
Length of Day
11h 43m
Tomorrow will be 2m 33s shorter.
First Quarter, 56% of the Moon is Illuminated
Today
First Quarter
Oct 8
Full
Oct 15
Last Quarter
Oct 23
New
Oct 30
First Quarter

Today's Extremes

State Highs State Lows

Community

WunderPhotos

Upload Photos

1,758,196 photos uploaded!

WunderBlogs® & News

By Dr. Jeff Masters
Director of Meteorology, Weather Underground
By Kari Strenfel
Meteorologist, Weather Underground
By Christopher C. Burt
Weather Historian, Weather Underground
October 2, 2014
October 2, 2014
October 2, 2014

Nearby

Snow Depth

Station Depth Elevation
No new snow has been reported.

Earthquake Activity

City Distance Mag. Time & Date
No recent earthquake activity has been reported nearby.
Minimum magnitude displayed is 2.5.

Coastal Water Temperatures

Place Temperature
No Stations Reporting

Nearby Weather Stations